Afric Star — A8KJ8 — position and weather

sailwx.info

Track history (hours):
 
Tides and Currents Weather Stations Pressure Air Temp Water Temp Dewpoint Dewpoint Depression Visibility Wind Speed Wind Dir Waves Ship Positions

Afric Star

Last reported at 2016-Apr-29 11:33 UTC. Time now 2016-Apr-29 12:08 UTC.
Position N 58°00' E 010°09'.

Length 158 m; draft 7.7 m.

Type: Cargo ship. MMSI: 636013069.

Date/timePositionNaut miles runAvg speedWind from/ knotsBaromVisibWave heightAir tempDewpointWater temp
2016-Apr-29 11:33N 58°00' E 010°09'2 2.2
2016-Apr-29 10:33N 57°58' E 010°09'6 1.8
2016-Apr-29 07:16N 57°54' E 010°01'810.8
2016-Apr-29 06:33N 58°01' E 010°07'1 0.8
2016-Apr-29 05:33N 58°01' E 010°08'2 1.9
2016-Apr-29 04:33N 57°60' E 010°07'2 1.8
2016-Apr-29 03:33N 57°58' E 010°06'1 1.4
2016-Apr-29 02:33N 57°56' E 010°05'1 1.1
2016-Apr-29 01:32N 57°55' E 010°04'  
2016-Apr-26 20:33N 58°15' E 009°52'7 1.8
2016-Apr-26 16:32N 58°23' E 009°55'3 2.1
2016-Apr-26 15:08N 58°23' E 010°00'1 2.3
2016-Apr-26 14:32N 58°22' E 010°03'2 2.3
2016-Apr-26 13:32N 58°22' E 010°07'2 2.5
2016-Apr-26 12:32N 58°22' E 010°12'3 2.9
2016-Apr-26 11:32N 58°20' E 010°17'3 2.8
2016-Apr-26 10:33N 58°19' E 010°22'3 2.8
2016-Apr-26 09:33N 58°18' E 010°26'3 2.9
2016-Apr-26 08:33N 58°16' E 010°31'3 2.5
2016-Apr-26 07:33N 58°15' E 010°35'2 2.4
2016-Apr-26 06:33N 58°14' E 010°39'2 2.3
2016-Apr-26 05:33N 58°13' E 010°43'2 2.1
2016-Apr-26 04:33N 58°12' E 010°46'2 1.9
2016-Apr-26 03:33N 58°11' E 010°50'2 1.6
2016-Apr-26 02:33N 58°10' E 010°52'2 1.8
2016-Apr-26 01:33N 58°09' E 010°54'2 1.8
2016-Apr-26 00:33N 58°08' E 010°57'2 2.3
2016-Apr-25 23:33N 58°06' E 010°58'3 2.7
2016-Apr-25 22:33N 58°03' E 011°01'5 5.0
2016-Apr-25 21:33N 58°00' E 010°53'1 0.5
2016-Apr-25 20:33N 58°01' E 010°54'2 1.8
2016-Apr-25 19:33N 58°01' E 010°57'2 1.5
2016-Apr-25 18:33N 58°02' E 010°60'1 1.0
2016-Apr-25 17:33N 58°02' E 011°01'1 0.5
2016-Apr-25 16:33N 58°02' E 011°02'0 0.3
2016-Apr-25 15:33N 58°02' E 011°03'2 1.7
2016-Apr-25 14:33N 58°02' E 011°06'3 2.9
2016-Apr-25 13:33N 58°01' E 011°11'1413.6
2016-Apr-25 12:34N 57°48' E 011°00'1414.2
2016-Apr-25 11:33N 57°39' E 010°40'2 1.8
2016-Apr-25 10:29N 57°39' E 010°36'0 0.0
2016-Apr-25 09:29N 57°39' E 010°37'0 0.0
2016-Apr-25 07:23N 57°39' E 010°36'0 0.0
2016-Apr-25 04:29N 57°39' E 010°37'0 0.0
2016-Apr-25 02:11N 57°39' E 010°37'0 0.0
2016-Apr-24 23:29N 57°39' E 010°37'0 0.1
2016-Apr-24 22:32N 57°39' E 010°37'0 0.0
2016-Apr-24 21:32N 57°39' E 010°37'0 0.0
2016-Apr-24 20:32N 57°39' E 010°37'0 0.1
2016-Apr-24 19:32N 57°39' E 010°37'0 0.1
2016-Apr-24 18:13N 57°39' E 010°37'0 0.0
2016-Apr-24 12:26N 57°39' E 010°36'0 0.0
2016-Apr-24 10:26N 57°39' E 010°36'0 0.0
2016-Apr-24 09:32N 57°39' E 010°36'0 0.0
2016-Apr-24 08:29N 57°39' E 010°36'0 0.0
2016-Apr-23 00:16N 57°39' E 010°37'0 0.0
2016-Apr-21 14:31N 57°39' E 010°37'0 0.0
2016-Apr-21 09:28N 57°39' E 010°36'0 0.0
2016-Apr-21 04:31N 57°39' E 010°36'0 0.0
2016-Apr-21 03:25N 57°39' E 010°36'0 0.0
2016-Apr-21 02:04N 57°39' E 010°36'0 0.0
2016-Apr-21 01:31N 57°39' E 010°36'0 0.0
2016-Apr-21 00:31N 57°39' E 010°36'0 0.0
2016-Apr-20 23:31N 57°39' E 010°36'0 0.0
2016-Apr-20 22:31N 57°39' E 010°36'0 0.0
2016-Apr-20 21:22N 57°39' E 010°36'0 0.0
2016-Apr-20 20:31N 57°39' E 010°36'3 3.5
2016-Apr-20 19:33N 57°41' E 010°42'8 8.3
2016-Apr-20 18:34N 57°48' E 010°34'1615.7
2016-Apr-20 17:34N 57°44' E 010°05'7 0.9
2016-Apr-20 09:19N 57°45' E 009°52'1215.4
2016-Apr-20 08:33N 57°48' E 010°13'1515.0
2016-Apr-20 07:34N 57°48' E 010°41'9 8.6
2016-Apr-20 06:33N 57°40' E 010°44'3 3.0
2016-Apr-20 05:31N 57°39' E 010°38'0 0.0
2016-Apr-20 04:31N 57°39' E 010°38'0 0.0
2016-Apr-20 03:31N 57°39' E 010°38'0 0.0
2016-Apr-20 02:31N 57°39' E 010°38'0 0.0
2016-Apr-20 01:28N 57°39' E 010°38'0 0.0
2016-Apr-20 00:31N 57°39' E 010°38'0 0.0
2016-Apr-19 23:31N 57°39' E 010°38'0 0.0
2016-Apr-19 22:31N 57°39' E 010°38'0 0.0
2016-Apr-19 21:31N 57°39' E 010°38'0 0.0
2016-Apr-19 20:31N 57°39' E 010°38'0 0.0
2016-Apr-19 19:31N 57°39' E 010°38'0 0.0
2016-Apr-19 18:31N 57°39' E 010°38'0 0.0
2016-Apr-19 17:31N 57°39' E 010°38'0 0.0
2016-Apr-19 16:31N 57°39' E 010°38'0 0.0
2016-Apr-19 15:31N 57°39' E 010°38'6 5.7
2016-Apr-19 14:33N 57°38' E 010°49'1514.8
2016-Apr-19 13:33N 57°34' E 011°15'1515.5
2016-Apr-19 12:33N 57°21' E 011°31'1616.0
2016-Apr-19 11:33N 57°06' E 011°41'  
Track history (hours):
 
Tides and Currents Weather Stations Pressure Air Temp Water Temp Dewpoint Dewpoint Depression Visibility Wind Speed Wind Dir Waves Ship Positions

Afric Star

Last reported at 2016-Apr-29 11:33 UTC. Time now 2016-Apr-29 12:08 UTC.
Position N 58°00' E 010°09'.

Length 158 m; draft 7.7 m.

Type: Cargo ship. MMSI: 636013069.

Date/timePositionNaut miles runAvg speedWind from/ knotsBaromVisibWave heightAir tempDewpointWater temp
2016-Apr-29 11:33N 58°00' E 010°09'2 2.2
2016-Apr-29 10:33N 57°58' E 010°09'6 1.8
2016-Apr-29 07:16N 57°54' E 010°01'810.8
2016-Apr-29 06:33N 58°01' E 010°07'1 0.8
2016-Apr-29 05:33N 58°01' E 010°08'2 1.9
2016-Apr-29 04:33N 57°60' E 010°07'2 1.8
2016-Apr-29 03:33N 57°58' E 010°06'1 1.4
2016-Apr-29 02:33N 57°56' E 010°05'1 1.1
2016-Apr-29 01:32N 57°55' E 010°04'  
2016-Apr-26 20:33N 58°15' E 009°52'7 1.8
2016-Apr-26 16:32N 58°23' E 009°55'3 2.1
2016-Apr-26 15:08N 58°23' E 010°00'1 2.3
2016-Apr-26 14:32N 58°22' E 010°03'2 2.3
2016-Apr-26 13:32N 58°22' E 010°07'2 2.5
2016-Apr-26 12:32N 58°22' E 010°12'3 2.9
2016-Apr-26 11:32N 58°20' E 010°17'3 2.8
2016-Apr-26 10:33N 58°19' E 010°22'3 2.8
2016-Apr-26 09:33N 58°18' E 010°26'3 2.9
2016-Apr-26 08:33N 58°16' E 010°31'3 2.5
2016-Apr-26 07:33N 58°15' E 010°35'2 2.4
2016-Apr-26 06:33N 58°14' E 010°39'2 2.3
2016-Apr-26 05:33N 58°13' E 010°43'2 2.1
2016-Apr-26 04:33N 58°12' E 010°46'2 1.9
2016-Apr-26 03:33N 58°11' E 010°50'2 1.6
2016-Apr-26 02:33N 58°10' E 010°52'2 1.8
2016-Apr-26 01:33N 58°09' E 010°54'2 1.8
2016-Apr-26 00:33N 58°08' E 010°57'2 2.3
2016-Apr-25 23:33N 58°06' E 010°58'3 2.7
2016-Apr-25 22:33N 58°03' E 011°01'5 5.0
2016-Apr-25 21:33N 58°00' E 010°53'1 0.5
2016-Apr-25 20:33N 58°01' E 010°54'2 1.8
2016-Apr-25 19:33N 58°01' E 010°57'2 1.5
2016-Apr-25 18:33N 58°02' E 010°60'1 1.0
2016-Apr-25 17:33N 58°02' E 011°01'1 0.5
2016-Apr-25 16:33N 58°02' E 011°02'0 0.3
2016-Apr-25 15:33N 58°02' E 011°03'2 1.7
2016-Apr-25 14:33N 58°02' E 011°06'3 2.9
2016-Apr-25 13:33N 58°01' E 011°11'1413.6
2016-Apr-25 12:34N 57°48' E 011°00'1414.2
2016-Apr-25 11:33N 57°39' E 010°40'2 1.8
2016-Apr-25 10:29N 57°39' E 010°36'0 0.0
2016-Apr-25 09:29N 57°39' E 010°37'0 0.0
2016-Apr-25 07:23N 57°39' E 010°36'0 0.0
2016-Apr-25 04:29N 57°39' E 010°37'0 0.0
2016-Apr-25 02:11N 57°39' E 010°37'0 0.0
2016-Apr-24 23:29N 57°39' E 010°37'0 0.1
2016-Apr-24 22:32N 57°39' E 010°37'0 0.0
2016-Apr-24 21:32N 57°39' E 010°37'0 0.0
2016-Apr-24 20:32N 57°39' E 010°37'0 0.1
2016-Apr-24 19:32N 57°39' E 010°37'0 0.1
2016-Apr-24 18:13N 57°39' E 010°37'0 0.0
2016-Apr-24 12:26N 57°39' E 010°36'0 0.0
2016-Apr-24 10:26N 57°39' E 010°36'0 0.0
2016-Apr-24 09:32N 57°39' E 010°36'0 0.0
2016-Apr-24 08:29N 57°39' E 010°36'0 0.0
2016-Apr-23 00:16N 57°39' E 010°37'0 0.0
2016-Apr-21 14:31N 57°39' E 010°37'0 0.0
2016-Apr-21 09:28N 57°39' E 010°36'0 0.0
2016-Apr-21 04:31N 57°39' E 010°36'0 0.0
2016-Apr-21 03:25N 57°39' E 010°36'0 0.0
2016-Apr-21 02:04N 57°39' E 010°36'0 0.0
2016-Apr-21 01:31N 57°39' E 010°36'0 0.0
2016-Apr-21 00:31N 57°39' E 010°36'0 0.0
2016-Apr-20 23:31N 57°39' E 010°36'0 0.0
2016-Apr-20 22:31N 57°39' E 010°36'0 0.0
2016-Apr-20 21:22N 57°39' E 010°36'0 0.0
2016-Apr-20 20:31N 57°39' E 010°36'3 3.5
2016-Apr-20 19:33N 57°41' E 010°42'8 8.3
2016-Apr-20 18:34N 57°48' E 010°34'1615.7
2016-Apr-20 17:34N 57°44' E 010°05'7 0.9
2016-Apr-20 09:19N 57°45' E 009°52'1215.4
2016-Apr-20 08:33N 57°48' E 010°13'1515.0
2016-Apr-20 07:34N 57°48' E 010°41'9 8.6
2016-Apr-20 06:33N 57°40' E 010°44'3 3.0
2016-Apr-20 05:31N 57°39' E 010°38'0 0.0
2016-Apr-20 04:31N 57°39' E 010°38'0 0.0
2016-Apr-20 03:31N 57°39' E 010°38'0 0.0
2016-Apr-20 02:31N 57°39' E 010°38'0 0.0
2016-Apr-20 01:28N 57°39' E 010°38'0 0.0
2016-Apr-20 00:31N 57°39' E 010°38'0 0.0
2016-Apr-19 23:31N 57°39' E 010°38'0 0.0
2016-Apr-19 22:31N 57°39' E 010°38'0 0.0
2016-Apr-19 21:31N 57°39' E 010°38'0 0.0
2016-Apr-19 20:31N 57°39' E 010°38'0 0.0
2016-Apr-19 19:31N 57°39' E 010°38'0 0.0
2016-Apr-19 18:31N 57°39' E 010°38'0 0.0
2016-Apr-19 17:31N 57°39' E 010°38'0 0.0
2016-Apr-19 16:31N 57°39' E 010°38'0 0.0
2016-Apr-19 15:31N 57°39' E 010°38'6 5.7
2016-Apr-19 14:33N 57°38' E 010°49'1514.8
2016-Apr-19 13:33N 57°34' E 011°15'1515.5
2016-Apr-19 12:33N 57°21' E 011°31'1616.0
2016-Apr-19 11:33N 57°06' E 011°41'  

Dump ship's entire track history